createdAt,value
2022-12-05T00:00:55.983Z,16.33
2022-12-05T00:03:23.754Z,20.93
2022-12-05T00:05:51.341Z,12.50
2022-12-05T00:08:18.969Z,18.80
2022-12-05T00:10:46.503Z,19.23
2022-12-05T00:13:13.923Z,12.30
2022-12-05T00:15:41.727Z,18.70
2022-12-05T00:18:09.290Z,20.20
2022-12-05T00:20:36.768Z,18.63
2022-12-05T00:23:04.241Z,14.17
2022-12-05T00:25:31.690Z,15.37
2022-12-05T00:27:59.223Z,16.27
2022-12-05T00:30:26.647Z,18.27
2022-12-05T00:32:54.138Z,14.70
2022-12-05T00:35:21.578Z,18.37
2022-12-05T00:37:49.093Z,14.33
2022-12-05T00:40:16.778Z,17.30
2022-12-05T00:42:48.053Z,18.13
2022-12-05T00:45:18.452Z,12.63
2022-12-05T00:47:45.960Z,19.13
2022-12-05T00:50:13.459Z,15.67
2022-12-05T00:52:40.922Z,16.40
2022-12-05T00:55:08.578Z,21.90
2022-12-05T00:57:36.004Z,12.23
2022-12-05T01:00:04.346Z,12.77
2022-12-05T01:02:31.803Z,16.13
2022-12-05T01:04:59.269Z,15.63
2022-12-05T01:07:26.746Z,15.13
2022-12-05T01:09:54.433Z,18.53
2022-12-05T01:12:21.941Z,12.53
2022-12-05T01:14:49.382Z,19.83
2022-12-05T01:17:16.811Z,20.00
2022-12-05T01:19:44.325Z,20.33
2022-12-05T01:22:11.729Z,20.57
2022-12-05T01:24:39.189Z,20.30
2022-12-05T01:27:06.660Z,19.27
2022-12-05T01:29:34.136Z,19.23
2022-12-05T01:32:01.612Z,20.57
2022-12-05T01:34:29.304Z,20.13
2022-12-05T01:36:56.746Z,15.97
2022-12-05T01:39:24.275Z,15.90
2022-12-05T01:41:51.772Z,17.33
2022-12-05T01:44:19.217Z,18.23
2022-12-05T01:46:50.842Z,20.07
2022-12-05T01:49:21.543Z,18.23
2022-12-05T01:51:50.762Z,15.53
2022-12-05T01:54:18.974Z,18.93
2022-12-05T01:56:48.429Z,11.33
2022-12-05T01:59:17.070Z,15.20
2022-12-05T02:01:44.901Z,16.47
2022-12-05T02:04:12.430Z,17.30
2022-12-05T02:06:40.007Z,20.43
2022-12-05T02:09:07.461Z,20.77
2022-12-05T02:11:35.257Z,17.00
2022-12-05T02:14:02.699Z,17.07
2022-12-05T02:16:31.550Z,20.30
2022-12-05T02:18:59.009Z,19.83
2022-12-05T02:21:54.241Z,17.67
2022-12-05T02:24:30.611Z,12.80
2022-12-05T02:27:15.792Z,17.53
2022-12-05T02:29:52.426Z,13.40
2022-12-05T02:32:19.935Z,16.60
2022-12-05T02:34:59.399Z,18.87
2022-12-05T02:37:52.945Z,17.70
2022-12-05T02:40:38.002Z,11.80
2022-12-05T02:43:08.742Z,16.90
2022-12-05T02:45:37.613Z,16.90
2022-12-05T02:48:05.375Z,16.37
2022-12-05T02:50:34.911Z,19.77
2022-12-05T02:53:04.852Z,15.20
2022-12-05T02:55:33.038Z,15.97
2022-12-05T02:58:02.650Z,16.37
2022-12-05T03:00:30.063Z,14.37
2022-12-05T03:02:58.973Z,15.97
2022-12-05T03:05:32.209Z,13.67
2022-12-05T03:08:01.009Z,14.10
2022-12-05T03:10:29.842Z,17.90
2022-12-05T03:13:01.003Z,14.60
2022-12-05T03:15:31.995Z,14.57
2022-12-05T03:18:08.551Z,9.57
2022-12-05T03:20:39.206Z,19.47
2022-12-05T03:23:06.623Z,18.63
2022-12-05T03:25:45.528Z,12.27
2022-12-05T03:28:22.544Z,14.40
2022-12-05T03:30:52.840Z,13.37
2022-12-05T03:33:26.529Z,14.33
2022-12-05T03:36:04.893Z,13.27
2022-12-05T03:38:32.335Z,14.10
2022-12-05T03:41:09.464Z,14.27
2022-12-05T03:43:36.934Z,13.43
2022-12-05T03:46:09.466Z,16.90
2022-12-05T03:48:55.852Z,13.07
2022-12-05T03:51:26.330Z,19.73
2022-12-05T03:54:06.657Z,18.03
2022-12-05T03:56:43.762Z,18.97
2022-12-05T03:59:14.858Z,20.47
2022-12-05T04:01:44.198Z,20.70
2022-12-05T04:04:14.565Z,19.60
2022-12-05T04:06:44.166Z,17.77
2022-12-05T04:09:38.382Z,13.23
2022-12-05T04:12:09.002Z,17.50
2022-12-05T04:14:40.757Z,17.87
2022-12-05T04:17:17.485Z,16.90
2022-12-05T04:19:47.994Z,19.40
2022-12-05T04:22:15.415Z,18.93
2022-12-05T04:24:42.908Z,22.97
2022-12-05T04:27:13.385Z,20.53
2022-12-05T04:29:45.370Z,17.27
2022-12-05T04:32:14.081Z,17.33
2022-12-05T04:34:42.709Z,19.77
2022-12-05T04:37:15.549Z,19.00
2022-12-05T04:39:58.769Z,14.13
2022-12-05T04:42:27.987Z,20.00
2022-12-05T04:45:02.535Z,20.13
2022-12-05T04:47:31.891Z,20.73
2022-12-05T04:50:00.025Z,20.57
2022-12-05T04:52:29.565Z,21.03
2022-12-05T04:54:59.826Z,20.17
2022-12-05T04:57:42.620Z,15.90
2022-12-05T05:00:10.286Z,20.57
2022-12-05T05:02:42.227Z,21.60
2022-12-05T05:05:14.100Z,23.33
2022-12-05T05:07:46.019Z,22.07
2022-12-05T05:10:15.580Z,22.90
2022-12-05T05:12:42.987Z,21.20
2022-12-05T05:15:10.544Z,21.27
2022-12-05T05:17:38.008Z,23.73
2022-12-05T05:20:05.897Z,24.87
2022-12-05T05:22:33.347Z,24.07
2022-12-05T05:25:00.789Z,25.07
2022-12-05T05:27:28.224Z,24.30
2022-12-05T05:29:55.809Z,25.90
2022-12-05T05:32:23.571Z,24.00
2022-12-05T05:34:50.971Z,23.37
2022-12-05T05:37:18.385Z,22.43
2022-12-05T05:39:45.863Z,25.30
2022-12-05T05:42:13.292Z,22.73
2022-12-05T05:44:40.759Z,24.90
2022-12-05T05:47:08.252Z,24.67
2022-12-05T05:49:35.711Z,24.90
2022-12-05T05:52:03.146Z,25.00
2022-12-05T05:54:30.639Z,21.27
2022-12-05T05:56:58.045Z,24.43
2022-12-05T05:59:25.478Z,24.10
2022-12-05T06:01:52.952Z,23.53
2022-12-05T06:04:20.493Z,24.20
2022-12-05T06:06:48.069Z,22.93
2022-12-05T06:09:15.769Z,23.47
2022-12-05T06:11:43.207Z,23.80
2022-12-05T06:14:10.723Z,24.53
2022-12-05T06:16:38.319Z,22.97
2022-12-05T06:19:05.905Z,23.90
2022-12-05T06:21:33.304Z,22.67
2022-12-05T06:24:00.808Z,20.00
2022-12-05T06:26:28.304Z,22.43
2022-12-05T06:28:55.727Z,23.30
2022-12-05T06:31:24.226Z,25.60
2022-12-05T06:33:51.649Z,23.90
2022-12-05T06:36:20.270Z,24.33
2022-12-05T06:38:48.018Z,24.83
2022-12-05T06:41:16.538Z,24.13
2022-12-05T06:43:47.045Z,25.27
2022-12-05T06:46:15.466Z,25.23
2022-12-05T06:48:42.942Z,23.87
2022-12-05T06:51:11.390Z,24.23
2022-12-05T06:53:39.195Z,24.47
2022-12-05T06:56:08.304Z,24.40
2022-12-05T06:58:35.733Z,23.50
2022-12-05T07:01:03.273Z,25.53
2022-12-05T07:03:30.744Z,25.20
2022-12-05T07:06:00.884Z,24.73
2022-12-05T07:08:28.381Z,23.80
2022-12-05T07:10:55.860Z,23.13
2022-12-05T07:13:23.441Z,24.17
2022-12-05T07:15:51.161Z,24.23
2022-12-05T07:18:19.139Z,24.07
2022-12-05T07:21:10.713Z,25.47
2022-12-05T07:23:34.101Z,24.50
2022-12-05T07:26:04.938Z,23.10
2022-12-05T07:28:32.653Z,23.30
2022-12-05T07:31:02.971Z,21.73
2022-12-05T07:33:30.463Z,23.70
2022-12-05T07:36:05.074Z,22.80
2022-12-05T07:38:32.716Z,23.70
2022-12-05T07:41:00.200Z,22.40
2022-12-05T07:43:27.671Z,18.43
2022-12-05T07:45:55.093Z,21.60
2022-12-05T07:48:22.618Z,23.07
2022-12-05T07:50:50.070Z,22.33
2022-12-05T07:53:17.520Z,21.27
2022-12-05T07:55:44.928Z,21.67
2022-12-05T07:58:12.401Z,23.47
2022-12-05T08:00:39.880Z,22.67
2022-12-05T08:03:07.334Z,21.77
2022-12-05T08:05:34.879Z,19.53
2022-12-05T08:08:02.403Z,18.90
2022-12-05T08:10:29.903Z,22.70
2022-12-05T08:12:57.372Z,22.17
2022-12-05T08:15:24.847Z,21.77
2022-12-05T08:17:52.315Z,20.33
2022-12-05T08:20:19.982Z,20.13
2022-12-05T08:22:47.659Z,18.17
2022-12-05T08:25:15.198Z,18.70
2022-12-05T08:27:42.751Z,17.90
2022-12-05T08:30:10.256Z,19.67
2022-12-05T08:32:37.699Z,21.50
2022-12-05T08:35:05.345Z,22.27
2022-12-05T08:37:32.963Z,19.70
2022-12-05T08:40:00.602Z,21.07
2022-12-05T08:42:28.227Z,21.87
2022-12-05T08:44:55.978Z,19.03
2022-12-05T08:47:23.579Z,19.97
2022-12-05T08:49:51.072Z,18.33
2022-12-05T08:52:18.802Z,18.83
2022-12-05T08:54:46.309Z,18.87
2022-12-05T08:57:13.717Z,18.90
2022-12-05T08:59:41.226Z,19.17
2022-12-05T09:02:09.375Z,19.20
2022-12-05T09:04:36.939Z,18.73
2022-12-05T09:07:04.385Z,18.20
2022-12-05T09:09:31.855Z,17.83
2022-12-05T09:11:59.310Z,19.83
2022-12-05T09:14:26.775Z,19.67
2022-12-05T09:16:54.222Z,18.73
2022-12-05T09:19:21.686Z,18.30
2022-12-05T09:21:49.130Z,20.67
2022-12-05T09:24:16.567Z,20.23
2022-12-05T09:26:44.143Z,20.27
2022-12-05T09:29:16.678Z,20.27
2022-12-05T09:31:45.719Z,19.63
2022-12-05T09:34:13.815Z,19.00
2022-12-05T09:36:41.628Z,18.50
2022-12-05T09:39:09.240Z,18.93
2022-12-05T09:41:45.524Z,18.67
2022-12-05T09:44:15.767Z,19.80
2022-12-05T09:46:53.104Z,20.83
2022-12-05T09:49:21.043Z,18.17
2022-12-05T09:51:55.096Z,18.87
2022-12-05T09:54:24.143Z,17.20
2022-12-05T09:56:52.056Z,17.50
2022-12-05T09:59:20.263Z,18.83
2022-12-05T10:02:00.317Z,17.17
2022-12-05T10:04:40.083Z,17.50
2022-12-05T10:07:19.574Z,17.90
2022-12-05T10:09:47.048Z,18.97
2022-12-05T10:12:20.419Z,17.37
2022-12-05T10:14:50.867Z,17.73
2022-12-05T10:17:30.258Z,16.87
2022-12-05T10:19:59.038Z,18.27
2022-12-05T10:22:29.926Z,16.57
2022-12-05T10:25:01.334Z,16.43
2022-12-05T10:27:39.584Z,16.57
2022-12-05T10:30:07.933Z,16.57
2022-12-05T10:32:48.337Z,17.10
2022-12-05T10:35:15.976Z,17.43
2022-12-05T10:37:48.361Z,16.60
2022-12-05T10:40:16.326Z,18.50
2022-12-05T10:42:44.336Z,18.33
2022-12-05T10:45:16.827Z,17.23
2022-12-05T10:47:44.355Z,17.80
2022-12-05T10:50:40.948Z,16.40
2022-12-05T10:53:08.764Z,17.60
2022-12-05T10:56:00.086Z,17.87
2022-12-05T10:58:31.002Z,17.97
2022-12-05T11:00:59.940Z,16.80
2022-12-05T11:03:30.786Z,18.80
2022-12-05T11:06:01.386Z,18.07
2022-12-05T11:09:02.394Z,18.60
2022-12-05T11:11:19.934Z,20.17
2022-12-05T11:13:55.148Z,20.83
2022-12-05T11:16:24.709Z,19.93
2022-12-05T11:18:52.321Z,19.00
2022-12-05T11:21:20.004Z,18.80
2022-12-05T11:23:48.483Z,18.90
2022-12-05T11:26:20.757Z,18.10
2022-12-05T11:28:48.340Z,18.67
2022-12-05T11:31:16.189Z,17.77
2022-12-05T11:33:43.711Z,16.27
2022-12-05T11:36:11.230Z,14.70
2022-12-05T11:38:40.305Z,16.37
2022-12-05T11:41:16.490Z,15.83
2022-12-05T11:43:50.067Z,15.03
2022-12-05T11:46:20.076Z,16.43
2022-12-05T11:49:08.567Z,15.17
2022-12-05T11:51:54.531Z,16.37
2022-12-05T11:57:27.547Z,18.03
2022-12-05T12:00:07.244Z,20.23
2022-12-05T12:02:54.445Z,18.23
2022-12-05T12:05:40.665Z,17.33
2022-12-05T12:08:08.206Z,18.37
2022-12-05T12:10:54.684Z,17.97
2022-12-05T12:13:31.343Z,18.63
2022-12-05T12:15:59.660Z,19.23
2022-12-05T12:18:29.448Z,16.57
2022-12-05T12:21:17.248Z,17.43
2022-12-05T12:24:03.723Z,16.97
2022-12-05T12:26:41.884Z,26.63
2022-12-05T12:29:25.794Z,21.23
2022-12-05T12:31:59.256Z,20.13
2022-12-05T12:34:37.772Z,23.17
2022-12-05T12:37:05.231Z,19.27
2022-12-05T12:39:32.706Z,18.27
2022-12-05T12:42:25.195Z,17.93
2022-12-05T12:45:11.366Z,19.00
2022-12-05T12:47:38.995Z,18.37
2022-12-05T12:50:12.600Z,18.10
2022-12-05T12:53:00.374Z,16.23
2022-12-05T12:55:27.944Z,18.67
2022-12-05T12:58:25.037Z,18.23
2022-12-05T13:00:52.711Z,21.23
2022-12-05T13:03:32.399Z,21.30
2022-12-05T13:06:01.736Z,21.23
2022-12-05T13:08:31.990Z,21.33
2022-12-05T13:11:00.216Z,21.03
2022-12-05T13:13:31.806Z,22.87
2022-12-05T13:16:00.966Z,21.67
2022-12-05T13:18:28.482Z,21.83
2022-12-05T13:20:57.893Z,21.63
2022-12-05T13:23:27.617Z,20.57
2022-12-05T13:25:56.263Z,25.13
2022-12-05T13:28:36.153Z,23.73
2022-12-05T13:31:03.759Z,20.40
2022-12-05T13:33:33.244Z,22.30
2022-12-05T13:36:06.517Z,20.90
2022-12-05T13:38:36.635Z,20.40
2022-12-05T13:41:04.263Z,19.93
2022-12-05T13:43:31.866Z,18.67
2022-12-05T13:45:59.694Z,19.57
2022-12-05T13:48:28.613Z,21.17
2022-12-05T13:50:58.913Z,20.47
2022-12-05T13:53:33.028Z,20.17
2022-12-05T13:56:00.489Z,19.03
2022-12-05T13:58:33.771Z,19.73
2022-12-05T14:01:20.050Z,20.00
2022-12-05T14:03:47.611Z,16.73
2022-12-05T14:06:35.045Z,15.53
2022-12-05T14:09:03.179Z,15.67
2022-12-05T14:11:31.083Z,16.00
2022-12-05T14:14:04.319Z,16.33
2022-12-05T14:16:32.640Z,14.00
2022-12-05T14:19:18.782Z,13.87
2022-12-05T14:21:51.849Z,13.57
2022-12-05T14:24:19.344Z,14.53
2022-12-05T14:27:05.621Z,13.40
2022-12-05T14:29:59.697Z,13.77
2022-12-05T14:32:35.988Z,12.33
2022-12-05T14:35:06.439Z,15.43
2022-12-05T14:37:35.242Z,12.37
2022-12-05T14:40:04.094Z,14.87
2022-12-05T14:42:34.318Z,14.30
2022-12-05T14:45:04.019Z,14.83
2022-12-05T14:47:33.193Z,14.07
2022-12-05T14:50:19.358Z,16.07
2022-12-05T14:53:06.894Z,14.77
2022-12-05T14:55:36.696Z,16.60
2022-12-05T14:58:04.169Z,14.37
2022-12-05T15:00:31.709Z,14.63
2022-12-05T15:02:59.538Z,16.77
2022-12-05T15:05:34.055Z,17.67
2022-12-05T15:08:02.770Z,17.33
2022-12-05T15:10:33.497Z,17.40
2022-12-05T15:13:06.215Z,15.17
2022-12-05T15:15:40.691Z,15.63
2022-12-05T15:18:27.090Z,17.37
2022-12-05T15:21:09.962Z,18.63
2022-12-05T15:23:48.343Z,17.90
2022-12-05T15:29:20.807Z,14.33
2022-12-05T15:31:54.188Z,14.93
2022-12-05T15:34:29.054Z,13.33
2022-12-05T15:37:14.844Z,12.03
2022-12-05T15:39:54.663Z,11.53
2022-12-05T15:42:31.398Z,12.03
2022-12-05T15:45:14.273Z,10.93
2022-12-05T15:47:42.677Z,11.37
2022-12-05T15:50:17.355Z,11.80
2022-12-05T15:52:58.617Z,12.00
2022-12-05T15:55:46.490Z,11.57
2022-12-05T15:58:34.309Z,11.87
2022-12-05T16:01:04.915Z,11.77
2022-12-05T16:04:01.919Z,12.63
2022-12-05T16:06:32.186Z,11.00
2022-12-05T16:09:00.235Z,12.20
2022-12-05T16:11:27.780Z,12.67
2022-12-05T16:13:57.059Z,12.03
2022-12-05T16:16:26.969Z,11.90
2022-12-05T16:18:55.993Z,12.63
2022-12-05T16:21:40.305Z,12.27
2022-12-05T16:24:27.557Z,12.53
2022-12-05T16:27:06.736Z,12.07
2022-12-05T16:29:35.118Z,12.43
2022-12-05T16:32:04.163Z,12.20
2022-12-05T16:34:33.512Z,12.60
2022-12-05T16:37:01.132Z,11.63
2022-12-05T16:39:28.994Z,11.70
2022-12-05T16:41:56.849Z,11.60
2022-12-05T16:44:43.154Z,11.33
2022-12-05T16:47:22.991Z,11.30
2022-12-05T16:49:50.506Z,12.17
2022-12-05T16:52:18.327Z,11.50
2022-12-05T16:54:46.748Z,12.13
2022-12-05T16:57:14.906Z,11.97
2022-12-05T16:59:43.056Z,13.63
2022-12-05T17:02:14.914Z,12.90
2022-12-05T17:04:42.803Z,13.13
2022-12-05T17:07:10.591Z,13.73
2022-12-05T17:09:38.076Z,11.93
2022-12-05T17:12:07.749Z,12.43
2022-12-05T17:14:35.304Z,12.93
2022-12-05T17:17:02.799Z,12.20
2022-12-05T17:19:30.372Z,11.60
2022-12-05T17:21:57.840Z,11.43
2022-12-05T17:24:25.363Z,12.10
2022-12-05T17:26:52.818Z,12.43
2022-12-05T17:29:20.353Z,12.00
2022-12-05T17:31:47.865Z,12.00
2022-12-05T17:34:16.958Z,12.03
2022-12-05T17:36:45.311Z,12.30
2022-12-05T17:39:13.204Z,12.83
2022-12-05T17:41:40.675Z,14.80
2022-12-05T17:44:08.375Z,15.13
2022-12-05T17:46:35.856Z,15.27
2022-12-05T17:49:03.349Z,13.93
2022-12-05T17:51:30.840Z,13.83
2022-12-05T17:53:58.286Z,13.67
2022-12-05T17:56:25.756Z,12.83
2022-12-05T17:58:53.189Z,13.93
2022-12-05T18:01:20.821Z,13.20
2022-12-05T18:03:48.730Z,12.80
2022-12-05T18:06:16.301Z,12.70
2022-12-05T18:08:44.335Z,12.80
2022-12-05T18:11:15.348Z,12.90
2022-12-05T18:13:42.826Z,13.67
2022-12-05T18:16:10.397Z,13.17
2022-12-05T18:18:38.079Z,12.87
2022-12-05T18:21:05.582Z,12.70
2022-12-05T18:23:33.088Z,11.77
2022-12-05T18:26:00.665Z,12.70
2022-12-05T18:28:28.278Z,13.13
2022-12-05T18:31:09.894Z,12.83
2022-12-05T18:33:37.730Z,12.20
2022-12-05T18:36:09.632Z,13.03
2022-12-05T18:38:37.373Z,12.53
2022-12-05T18:41:05.633Z,12.83
2022-12-05T18:43:33.125Z,12.00
2022-12-05T18:46:01.547Z,19.97
2022-12-05T18:48:39.558Z,15.73
2022-12-05T18:51:19.793Z,12.43
2022-12-05T18:53:48.271Z,16.97
2022-12-05T18:56:24.182Z,23.57
2022-12-05T18:58:55.186Z,27.33
2022-12-05T19:01:22.815Z,18.50
2022-12-05T19:03:50.382Z,17.60
2022-12-05T19:06:19.138Z,16.03
2022-12-05T19:08:46.764Z,15.00
2022-12-05T19:11:15.030Z,18.27
2022-12-05T19:13:42.724Z,22.07
2022-12-05T19:16:12.245Z,18.20
2022-12-05T19:18:40.101Z,22.23
2022-12-05T19:21:07.800Z,15.67
2022-12-05T19:23:36.195Z,15.80
2022-12-05T19:26:05.172Z,17.30
2022-12-05T19:28:33.422Z,17.10
2022-12-05T19:31:05.743Z,17.13
2022-12-05T19:33:34.072Z,12.30
2022-12-05T19:39:37.712Z,11.40
2022-12-05T19:42:05.350Z,12.23
2022-12-05T19:44:32.751Z,11.50
2022-12-05T19:47:00.387Z,12.17
2022-12-05T19:49:27.885Z,11.40
2022-12-05T19:51:55.389Z,11.50
2022-12-05T19:54:23.586Z,10.70
2022-12-05T19:56:51.018Z,10.27
2022-12-05T19:59:18.521Z,9.80
2022-12-05T20:01:46.052Z,10.57
2022-12-05T20:04:15.509Z,10.63
2022-12-05T20:06:44.416Z,11.63
2022-12-05T20:09:12.744Z,11.97
2022-12-05T20:11:41.560Z,18.03
2022-12-05T20:14:10.213Z,15.60
2022-12-05T20:16:37.785Z,15.77
2022-12-05T20:19:05.581Z,17.67
2022-12-05T20:21:33.657Z,15.60
2022-12-05T20:24:02.152Z,19.03
2022-12-05T20:26:34.381Z,15.87
2022-12-05T20:29:02.294Z,15.23
2022-12-05T20:31:31.049Z,14.23
2022-12-05T20:33:58.758Z,12.73
2022-12-05T20:36:28.045Z,14.40
2022-12-05T20:39:00.064Z,14.67
2022-12-05T20:41:28.142Z,12.83
2022-12-05T20:43:56.730Z,12.47
2022-12-05T20:46:24.530Z,12.50
2022-12-05T20:48:52.139Z,12.30
2022-12-05T20:51:20.918Z,13.60
2022-12-05T20:53:48.409Z,14.07
2022-12-05T20:56:16.926Z,12.20
2022-12-05T20:58:45.345Z,11.77
2022-12-05T21:01:13.589Z,11.77
2022-12-05T21:03:44.865Z,12.50
2022-12-05T21:06:19.672Z,11.93
2022-12-05T21:08:47.184Z,12.27
2022-12-05T21:11:15.189Z,13.70
2022-12-05T21:13:42.681Z,16.27
2022-12-05T21:16:11.775Z,15.10
2022-12-05T21:18:39.552Z,13.37
2022-12-05T21:21:08.528Z,14.10
2022-12-05T21:23:36.059Z,13.80
2022-12-05T21:26:05.315Z,14.03
2022-12-05T21:28:33.722Z,13.50
2022-12-05T21:31:15.348Z,12.97
2022-12-05T21:33:43.807Z,13.10
2022-12-05T21:36:11.223Z,14.10
2022-12-05T21:38:38.688Z,14.27
2022-12-05T21:41:06.700Z,13.90
2022-12-05T21:43:34.988Z,14.60
2022-12-05T21:46:02.723Z,15.60
2022-12-05T21:48:30.339Z,13.67
2022-12-05T21:50:58.039Z,14.30
2022-12-05T21:53:25.909Z,13.93
2022-12-05T21:56:03.348Z,15.60
2022-12-05T21:58:30.921Z,13.93
2022-12-05T22:00:58.388Z,14.67
2022-12-05T22:03:26.133Z,15.70
2022-12-05T22:06:03.683Z,16.07
2022-12-05T22:08:31.690Z,16.93
2022-12-05T22:11:09.949Z,15.63
2022-12-05T22:13:37.870Z,15.63
2022-12-05T22:16:05.904Z,16.90
2022-12-05T22:18:33.606Z,15.73
2022-12-05T22:21:02.627Z,17.80
2022-12-05T22:23:30.100Z,16.40
2022-12-05T22:26:07.421Z,15.93
2022-12-05T22:28:35.426Z,17.97
2022-12-05T22:31:03.960Z,17.63
2022-12-05T22:33:31.864Z,17.67
2022-12-05T22:36:00.320Z,17.07
2022-12-05T22:38:28.832Z,17.13
2022-12-05T22:41:00.362Z,15.73
2022-12-05T22:43:28.423Z,16.53
2022-12-05T22:45:55.934Z,18.17
2022-12-05T22:48:23.999Z,17.37
2022-12-05T22:50:52.579Z,16.10
2022-12-05T22:53:23.956Z,16.63
2022-12-05T22:55:51.977Z,17.60
2022-12-05T22:58:19.832Z,16.57
2022-12-05T23:00:47.525Z,16.40
2022-12-05T23:03:15.112Z,15.70
2022-12-05T23:05:43.712Z,16.37
2022-12-05T23:08:11.800Z,17.33
2022-12-05T23:10:39.609Z,16.13
2022-12-05T23:13:07.598Z,17.77
2022-12-05T23:15:37.345Z,16.97
2022-12-05T23:18:04.827Z,17.43
2022-12-05T23:20:32.285Z,17.27
2022-12-05T23:22:59.782Z,17.80
2022-12-05T23:25:27.229Z,17.80
2022-12-05T23:27:54.848Z,17.87
2022-12-05T23:30:22.261Z,17.97
2022-12-05T23:32:49.799Z,18.47
2022-12-05T23:35:17.295Z,18.73
2022-12-05T23:37:44.782Z,19.53
2022-12-05T23:40:12.286Z,20.27
2022-12-05T23:42:39.734Z,20.77
2022-12-05T23:45:08.601Z,20.73
2022-12-05T23:47:36.156Z,21.43
2022-12-05T23:50:03.936Z,21.30
2022-12-05T23:52:31.552Z,23.17
2022-12-05T23:54:59.095Z,21.27
2022-12-05T23:57:26.617Z,21.63
2022-12-05T23:59:54.051Z,21.50
